sensor_id;sensor_type;location;lat;lon;timestamp;P1;durP1;ratioP1;P2;durP2;ratioP2
15451;SDS011;7827;53.594;9.938;2023-03-08T00:01:28;5.53;;;2.10;;
15451;SDS011;7827;53.594;9.938;2023-03-08T00:03:57;4.13;;;1.97;;
15451;SDS011;7827;53.594;9.938;2023-03-08T00:06:26;5.50;;;1.90;;
15451;SDS011;7827;53.594;9.938;2023-03-08T00:08:55;11.90;;;2.30;;
15451;SDS011;7827;53.594;9.938;2023-03-08T00:11:26;5.60;;;2.00;;
15451;SDS011;7827;53.594;9.938;2023-03-08T00:13:57;3.77;;;2.17;;
15451;SDS011;7827;53.594;9.938;2023-03-08T00:16:27;6.07;;;2.50;;
15451;SDS011;7827;53.594;9.938;2023-03-08T00:18:55;4.13;;;2.10;;
15451;SDS011;7827;53.594;9.938;2023-03-08T00:21:23;4.60;;;1.83;;
15451;SDS011;7827;53.594;9.938;2023-03-08T00:23:52;6.00;;;2.33;;
15451;SDS011;7827;53.594;9.938;2023-03-08T00:26:21;5.13;;;2.30;;
15451;SDS011;7827;53.594;9.938;2023-03-08T00:28:50;6.80;;;2.40;;
15451;SDS011;7827;53.594;9.938;2023-03-08T00:31:20;9.37;;;2.40;;
15451;SDS011;7827;53.594;9.938;2023-03-08T00:33:52;6.43;;;3.10;;
15451;SDS011;7827;53.594;9.938;2023-03-08T00:36:21;6.40;;;2.70;;
15451;SDS011;7827;53.594;9.938;2023-03-08T00:38:50;6.43;;;2.43;;
15451;SDS011;7827;53.594;9.938;2023-03-08T00:41:18;6.50;;;2.77;;
15451;SDS011;7827;53.594;9.938;2023-03-08T00:43:47;6.03;;;2.80;;
15451;SDS011;7827;53.594;9.938;2023-03-08T00:46:16;8.17;;;2.60;;
15451;SDS011;7827;53.594;9.938;2023-03-08T00:48:46;7.60;;;2.70;;
15451;SDS011;7827;53.594;9.938;2023-03-08T00:51:15;4.40;;;2.50;;
15451;SDS011;7827;53.594;9.938;2023-03-08T00:53:45;4.73;;;2.70;;
15451;SDS011;7827;53.594;9.938;2023-03-08T00:56:14;3.97;;;2.57;;
15451;SDS011;7827;53.594;9.938;2023-03-08T00:58:43;5.20;;;2.30;;
15451;SDS011;7827;53.594;9.938;2023-03-08T01:01:13;6.73;;;2.73;;
15451;SDS011;7827;53.594;9.938;2023-03-08T01:03:48;5.33;;;2.43;;
15451;SDS011;7827;53.594;9.938;2023-03-08T01:06:17;6.47;;;2.57;;
15451;SDS011;7827;53.594;9.938;2023-03-08T01:08:46;6.13;;;2.63;;
15451;SDS011;7827;53.594;9.938;2023-03-08T01:11:16;5.57;;;2.90;;
15451;SDS011;7827;53.594;9.938;2023-03-08T01:13:49;5.63;;;2.60;;
15451;SDS011;7827;53.594;9.938;2023-03-08T01:16:19;9.57;;;2.67;;
15451;SDS011;7827;53.594;9.938;2023-03-08T01:18:51;3.93;;;2.73;;
15451;SDS011;7827;53.594;9.938;2023-03-08T01:21:23;4.57;;;2.30;;
15451;SDS011;7827;53.594;9.938;2023-03-08T01:23:53;6.13;;;3.13;;
15451;SDS011;7827;53.594;9.938;2023-03-08T01:26:23;5.70;;;2.60;;
15451;SDS011;7827;53.594;9.938;2023-03-08T01:28:54;5.33;;;2.80;;
15451;SDS011;7827;53.594;9.938;2023-03-08T01:31:24;7.97;;;2.70;;
15451;SDS011;7827;53.594;9.938;2023-03-08T01:33:56;8.60;;;2.60;;
15451;SDS011;7827;53.594;9.938;2023-03-08T01:36:26;4.03;;;3.00;;
15451;SDS011;7827;53.594;9.938;2023-03-08T01:38:55;4.53;;;2.90;;
15451;SDS011;7827;53.594;9.938;2023-03-08T01:41:27;4.43;;;3.13;;
15451;SDS011;7827;53.594;9.938;2023-03-08T01:43:57;5.77;;;2.93;;
15451;SDS011;7827;53.594;9.938;2023-03-08T01:46:27;4.37;;;2.87;;
15451;SDS011;7827;53.594;9.938;2023-03-08T01:49:17;7.73;;;3.23;;
15451;SDS011;7827;53.594;9.938;2023-03-08T01:51:52;5.77;;;2.90;;
15451;SDS011;7827;53.594;9.938;2023-03-08T01:54:28;4.70;;;3.47;;
15451;SDS011;7827;53.594;9.938;2023-03-08T01:57:04;4.90;;;3.30;;
15451;SDS011;7827;53.594;9.938;2023-03-08T01:59:41;7.63;;;3.60;;
15451;SDS011;7827;53.594;9.938;2023-03-08T02:02:11;9.77;;;3.70;;
15451;SDS011;7827;53.594;9.938;2023-03-08T02:04:41;6.57;;;3.83;;
15451;SDS011;7827;53.594;9.938;2023-03-08T02:07:12;5.70;;;3.80;;
15451;SDS011;7827;53.594;9.938;2023-03-08T02:09:41;4.83;;;4.13;;
15451;SDS011;7827;53.594;9.938;2023-03-08T02:12:11;5.87;;;4.07;;
15451;SDS011;7827;53.594;9.938;2023-03-08T02:14:40;5.90;;;4.07;;
15451;SDS011;7827;53.594;9.938;2023-03-08T02:17:11;10.03;;;4.93;;
15451;SDS011;7827;53.594;9.938;2023-03-08T02:19:42;7.70;;;4.33;;
15451;SDS011;7827;53.594;9.938;2023-03-08T02:22:19;7.70;;;4.40;;
15451;SDS011;7827;53.594;9.938;2023-03-08T02:24:49;9.23;;;5.17;;
15451;SDS011;7827;53.594;9.938;2023-03-08T02:27:19;8.60;;;4.40;;
15451;SDS011;7827;53.594;9.938;2023-03-08T02:29:52;5.53;;;4.30;;
15451;SDS011;7827;53.594;9.938;2023-03-08T02:32:21;7.37;;;4.30;;
15451;SDS011;7827;53.594;9.938;2023-03-08T02:34:51;6.37;;;4.57;;
15451;SDS011;7827;53.594;9.938;2023-03-08T02:37:20;7.27;;;4.23;;
15451;SDS011;7827;53.594;9.938;2023-03-08T02:39:51;8.13;;;4.60;;
15451;SDS011;7827;53.594;9.938;2023-03-08T02:42:21;6.20;;;4.50;;
15451;SDS011;7827;53.594;9.938;2023-03-08T02:44:49;6.13;;;4.80;;
15451;SDS011;7827;53.594;9.938;2023-03-08T02:47:18;8.03;;;5.07;;
15451;SDS011;7827;53.594;9.938;2023-03-08T02:49:46;7.77;;;5.13;;
15451;SDS011;7827;53.594;9.938;2023-03-08T02:52:15;10.00;;;4.87;;
15451;SDS011;7827;53.594;9.938;2023-03-08T02:54:43;5.20;;;4.70;;
15451;SDS011;7827;53.594;9.938;2023-03-08T02:57:13;7.97;;;5.17;;
15451;SDS011;7827;53.594;9.938;2023-03-08T02:59:43;10.00;;;5.70;;
15451;SDS011;7827;53.594;9.938;2023-03-08T03:02:13;9.07;;;5.70;;
15451;SDS011;7827;53.594;9.938;2023-03-08T03:04:41;8.20;;;5.60;;
15451;SDS011;7827;53.594;9.938;2023-03-08T03:07:11;8.17;;;5.73;;
15451;SDS011;7827;53.594;9.938;2023-03-08T03:09:39;12.97;;;6.10;;
15451;SDS011;7827;53.594;9.938;2023-03-08T03:12:07;10.67;;;6.20;;
15451;SDS011;7827;53.594;9.938;2023-03-08T03:14:40;10.00;;;6.00;;
15451;SDS011;7827;53.594;9.938;2023-03-08T03:17:08;10.20;;;5.93;;
15451;SDS011;7827;53.594;9.938;2023-03-08T03:19:37;7.50;;;6.00;;
15451;SDS011;7827;53.594;9.938;2023-03-08T03:22:05;8.03;;;5.63;;
15451;SDS011;7827;53.594;9.938;2023-03-08T03:24:33;13.57;;;6.10;;
15451;SDS011;7827;53.594;9.938;2023-03-08T03:27:04;9.17;;;5.77;;
15451;SDS011;7827;53.594;9.938;2023-03-08T03:29:35;7.70;;;5.43;;
15451;SDS011;7827;53.594;9.938;2023-03-08T03:32:13;9.43;;;5.90;;
15451;SDS011;7827;53.594;9.938;2023-03-08T03:34:42;8.50;;;6.07;;
15451;SDS011;7827;53.594;9.938;2023-03-08T03:37:11;11.23;;;6.10;;
15451;SDS011;7827;53.594;9.938;2023-03-08T03:39:40;9.57;;;5.67;;
15451;SDS011;7827;53.594;9.938;2023-03-08T03:42:12;6.27;;;5.33;;
15451;SDS011;7827;53.594;9.938;2023-03-08T03:44:48;8.90;;;5.77;;
15451;SDS011;7827;53.594;9.938;2023-03-08T03:47:20;9.97;;;5.50;;
15451;SDS011;7827;53.594;9.938;2023-03-08T03:49:53;9.93;;;6.00;;
15451;SDS011;7827;53.594;9.938;2023-03-08T03:52:23;6.67;;;5.70;;
15451;SDS011;7827;53.594;9.938;2023-03-08T03:54:58;9.07;;;5.90;;
15451;SDS011;7827;53.594;9.938;2023-03-08T03:57:27;10.10;;;6.00;;
15451;SDS011;7827;53.594;9.938;2023-03-08T03:59:56;11.67;;;5.90;;
15451;SDS011;7827;53.594;9.938;2023-03-08T04:02:26;8.03;;;6.70;;
15451;SDS011;7827;53.594;9.938;2023-03-08T04:04:59;6.40;;;5.80;;
15451;SDS011;7827;53.594;9.938;2023-03-08T04:07:31;6.97;;;6.07;;
15451;SDS011;7827;53.594;9.938;2023-03-08T04:10:00;8.97;;;5.70;;
15451;SDS011;7827;53.594;9.938;2023-03-08T04:12:30;7.93;;;5.73;;
15451;SDS011;7827;53.594;9.938;2023-03-08T04:14:59;7.30;;;5.70;;
15451;SDS011;7827;53.594;9.938;2023-03-08T04:17:31;9.20;;;6.17;;
15451;SDS011;7827;53.594;9.938;2023-03-08T04:20:00;8.40;;;6.40;;
15451;SDS011;7827;53.594;9.938;2023-03-08T04:22:33;6.73;;;5.87;;
15451;SDS011;7827;53.594;9.938;2023-03-08T04:25:16;8.57;;;6.17;;
15451;SDS011;7827;53.594;9.938;2023-03-08T04:27:51;7.80;;;6.37;;
15451;SDS011;7827;53.594;9.938;2023-03-08T04:30:20;8.37;;;5.90;;
15451;SDS011;7827;53.594;9.938;2023-03-08T04:32:51;8.73;;;5.67;;
15451;SDS011;7827;53.594;9.938;2023-03-08T04:35:25;8.33;;;6.07;;
15451;SDS011;7827;53.594;9.938;2023-03-08T04:37:54;6.90;;;5.20;;
15451;SDS011;7827;53.594;9.938;2023-03-08T04:40:24;7.20;;;5.13;;
15451;SDS011;7827;53.594;9.938;2023-03-08T04:42:57;8.03;;;6.03;;
15451;SDS011;7827;53.594;9.938;2023-03-08T04:45:32;12.37;;;6.03;;
15451;SDS011;7827;53.594;9.938;2023-03-08T04:48:07;9.13;;;5.67;;
15451;SDS011;7827;53.594;9.938;2023-03-08T04:50:36;7.80;;;5.03;;
15451;SDS011;7827;53.594;9.938;2023-03-08T04:53:06;6.57;;;5.03;;
15451;SDS011;7827;53.594;9.938;2023-03-08T04:55:35;5.83;;;5.13;;
15451;SDS011;7827;53.594;9.938;2023-03-08T04:58:04;10.17;;;5.47;;
15451;SDS011;7827;53.594;9.938;2023-03-08T05:00:33;6.87;;;4.87;;
15451;SDS011;7827;53.594;9.938;2023-03-08T05:03:01;8.27;;;4.80;;
15451;SDS011;7827;53.594;9.938;2023-03-08T05:05:33;9.10;;;5.20;;
15451;SDS011;7827;53.594;9.938;2023-03-08T05:08:01;5.87;;;5.27;;
15451;SDS011;7827;53.594;9.938;2023-03-08T05:10:32;7.67;;;5.40;;
15451;SDS011;7827;53.594;9.938;2023-03-08T05:13:01;7.63;;;5.53;;
15451;SDS011;7827;53.594;9.938;2023-03-08T05:15:29;5.70;;;4.70;;
15451;SDS011;7827;53.594;9.938;2023-03-08T05:17:58;5.97;;;4.80;;
15451;SDS011;7827;53.594;9.938;2023-03-08T05:20:26;5.40;;;4.90;;
15451;SDS011;7827;53.594;9.938;2023-03-08T05:22:56;7.73;;;4.97;;
15451;SDS011;7827;53.594;9.938;2023-03-08T05:25:40;7.20;;;5.13;;
15451;SDS011;7827;53.594;9.938;2023-03-08T05:28:10;5.10;;;4.67;;
15451;SDS011;7827;53.594;9.938;2023-03-08T05:30:42;10.90;;;5.00;;
15451;SDS011;7827;53.594;9.938;2023-03-08T05:33:11;5.60;;;5.00;;
15451;SDS011;7827;53.594;9.938;2023-03-08T05:35:40;6.67;;;5.00;;
15451;SDS011;7827;53.594;9.938;2023-03-08T05:38:11;6.23;;;5.10;;
15451;SDS011;7827;53.594;9.938;2023-03-08T05:40:40;8.67;;;4.63;;
15451;SDS011;7827;53.594;9.938;2023-03-08T05:43:09;7.10;;;4.93;;
15451;SDS011;7827;53.594;9.938;2023-03-08T05:45:39;9.57;;;5.53;;
15451;SDS011;7827;53.594;9.938;2023-03-08T05:48:07;6.73;;;5.03;;
15451;SDS011;7827;53.594;9.938;2023-03-08T05:50:36;6.87;;;5.20;;
15451;SDS011;7827;53.594;9.938;2023-03-08T05:53:05;8.50;;;5.40;;
15451;SDS011;7827;53.594;9.938;2023-03-08T05:55:34;7.80;;;5.53;;
15451;SDS011;7827;53.594;9.938;2023-03-08T05:58:03;8.77;;;6.00;;
15451;SDS011;7827;53.594;9.938;2023-03-08T06:00:32;8.50;;;7.13;;
15451;SDS011;7827;53.594;9.938;2023-03-08T06:03:01;10.13;;;7.80;;
15451;SDS011;7827;53.594;9.938;2023-03-08T06:05:33;15.53;;;8.03;;
15451;SDS011;7827;53.594;9.938;2023-03-08T06:08:01;9.27;;;7.40;;
15451;SDS011;7827;53.594;9.938;2023-03-08T06:10:31;10.57;;;8.37;;
15451;SDS011;7827;53.594;9.938;2023-03-08T06:13:01;15.40;;;9.30;;
15451;SDS011;7827;53.594;9.938;2023-03-08T06:15:30;13.47;;;10.10;;
15451;SDS011;7827;53.594;9.938;2023-03-08T06:17:58;16.63;;;9.70;;
15451;SDS011;7827;53.594;9.938;2023-03-08T06:20:27;17.03;;;10.67;;
15451;SDS011;7827;53.594;9.938;2023-03-08T06:22:55;14.90;;;10.23;;
15451;SDS011;7827;53.594;9.938;2023-03-08T06:25:23;18.10;;;10.60;;
15451;SDS011;7827;53.594;9.938;2023-03-08T06:27:52;16.20;;;10.23;;
15451;SDS011;7827;53.594;9.938;2023-03-08T06:30:31;20.27;;;11.40;;
15451;SDS011;7827;53.594;9.938;2023-03-08T06:33:01;16.23;;;10.87;;
15451;SDS011;7827;53.594;9.938;2023-03-08T06:35:30;17.77;;;11.20;;
15451;SDS011;7827;53.594;9.938;2023-03-08T06:38:00;17.67;;;11.80;;
15451;SDS011;7827;53.594;9.938;2023-03-08T06:40:30;15.97;;;11.53;;
15451;SDS011;7827;53.594;9.938;2023-03-08T06:42:58;18.10;;;11.10;;
15451;SDS011;7827;53.594;9.938;2023-03-08T06:45:27;23.27;;;10.93;;
15451;SDS011;7827;53.594;9.938;2023-03-08T06:47:57;16.40;;;11.10;;
15451;SDS011;7827;53.594;9.938;2023-03-08T06:50:27;20.07;;;11.10;;
15451;SDS011;7827;53.594;9.938;2023-03-08T06:52:55;17.67;;;10.00;;
15451;SDS011;7827;53.594;9.938;2023-03-08T06:55:37;15.90;;;10.10;;
15451;SDS011;7827;53.594;9.938;2023-03-08T06:58:07;15.50;;;10.27;;
15451;SDS011;7827;53.594;9.938;2023-03-08T07:00:36;16.13;;;10.40;;
15451;SDS011;7827;53.594;9.938;2023-03-08T07:03:05;15.80;;;10.57;;
15451;SDS011;7827;53.594;9.938;2023-03-08T07:05:34;15.23;;;10.60;;
15451;SDS011;7827;53.594;9.938;2023-03-08T07:08:02;17.43;;;11.67;;
15451;SDS011;7827;53.594;9.938;2023-03-08T07:10:31;18.87;;;10.40;;
15451;SDS011;7827;53.594;9.938;2023-03-08T07:13:00;21.27;;;12.60;;
15451;SDS011;7827;53.594;9.938;2023-03-08T07:15:29;18.03;;;11.17;;
15451;SDS011;7827;53.594;9.938;2023-03-08T07:17:57;17.73;;;11.03;;
15451;SDS011;7827;53.594;9.938;2023-03-08T07:20:27;18.47;;;11.57;;
15451;SDS011;7827;53.594;9.938;2023-03-08T07:22:55;17.43;;;11.77;;
15451;SDS011;7827;53.594;9.938;2023-03-08T07:25:27;17.33;;;11.63;;
15451;SDS011;7827;53.594;9.938;2023-03-08T07:27:57;18.00;;;11.57;;
15451;SDS011;7827;53.594;9.938;2023-03-08T07:30:25;25.17;;;11.57;;
15451;SDS011;7827;53.594;9.938;2023-03-08T07:32:54;17.40;;;11.77;;
15451;SDS011;7827;53.594;9.938;2023-03-08T07:35:22;19.43;;;11.57;;
15451;SDS011;7827;53.594;9.938;2023-03-08T07:37:52;23.80;;;12.30;;
15451;SDS011;7827;53.594;9.938;2023-03-08T07:40:20;20.47;;;13.23;;
15451;SDS011;7827;53.594;9.938;2023-03-08T07:42:49;20.33;;;13.33;;
15451;SDS011;7827;53.594;9.938;2023-03-08T07:45:40;22.80;;;13.07;;
15451;SDS011;7827;53.594;9.938;2023-03-08T07:48:08;23.00;;;12.27;;
15451;SDS011;7827;53.594;9.938;2023-03-08T07:50:37;22.37;;;12.70;;
15451;SDS011;7827;53.594;9.938;2023-03-08T07:53:06;24.10;;;12.70;;
15451;SDS011;7827;53.594;9.938;2023-03-08T07:55:35;18.70;;;12.63;;
15451;SDS011;7827;53.594;9.938;2023-03-08T07:58:04;20.77;;;12.70;;
15451;SDS011;7827;53.594;9.938;2023-03-08T08:00:32;21.57;;;12.70;;
15451;SDS011;7827;53.594;9.938;2023-03-08T08:03:00;20.77;;;13.83;;
15451;SDS011;7827;53.594;9.938;2023-03-08T08:05:28;19.90;;;12.93;;
15451;SDS011;7827;53.594;9.938;2023-03-08T08:07:57;21.87;;;12.83;;
15451;SDS011;7827;53.594;9.938;2023-03-08T08:10:27;23.60;;;13.67;;
15451;SDS011;7827;53.594;9.938;2023-03-08T08:12:56;24.60;;;14.17;;
15451;SDS011;7827;53.594;9.938;2023-03-08T08:15:24;26.87;;;15.20;;
15451;SDS011;7827;53.594;9.938;2023-03-08T08:17:52;24.93;;;15.10;;
15451;SDS011;7827;53.594;9.938;2023-03-08T08:20:21;25.70;;;15.40;;
15451;SDS011;7827;53.594;9.938;2023-03-08T08:22:50;25.53;;;16.03;;
15451;SDS011;7827;53.594;9.938;2023-03-08T08:25:19;27.50;;;16.53;;
15451;SDS011;7827;53.594;9.938;2023-03-08T08:27:49;28.03;;;16.73;;
15451;SDS011;7827;53.594;9.938;2023-03-08T08:30:18;27.63;;;15.97;;
15451;SDS011;7827;53.594;9.938;2023-03-08T08:32:47;28.17;;;15.93;;
15451;SDS011;7827;53.594;9.938;2023-03-08T08:35:15;24.53;;;14.53;;
15451;SDS011;7827;53.594;9.938;2023-03-08T08:37:44;28.83;;;14.73;;
15451;SDS011;7827;53.594;9.938;2023-03-08T08:40:12;28.37;;;15.17;;
15451;SDS011;7827;53.594;9.938;2023-03-08T08:42:40;31.10;;;16.20;;
15451;SDS011;7827;53.594;9.938;2023-03-08T08:45:10;24.00;;;15.17;;
15451;SDS011;7827;53.594;9.938;2023-03-08T08:47:39;26.63;;;15.63;;
15451;SDS011;7827;53.594;9.938;2023-03-08T08:50:08;30.33;;;14.87;;
15451;SDS011;7827;53.594;9.938;2023-03-08T08:52:39;26.37;;;15.40;;
15451;SDS011;7827;53.594;9.938;2023-03-08T08:55:08;26.10;;;13.93;;
15451;SDS011;7827;53.594;9.938;2023-03-08T08:57:36;25.13;;;14.67;;
15451;SDS011;7827;53.594;9.938;2023-03-08T09:00:05;26.00;;;15.13;;
15451;SDS011;7827;53.594;9.938;2023-03-08T09:02:36;25.83;;;15.17;;
15451;SDS011;7827;53.594;9.938;2023-03-08T09:05:05;23.53;;;14.20;;
15451;SDS011;7827;53.594;9.938;2023-03-08T09:07:34;25.60;;;14.07;;
15451;SDS011;7827;53.594;9.938;2023-03-08T09:10:05;21.40;;;13.57;;
15451;SDS011;7827;53.594;9.938;2023-03-08T09:12:35;19.87;;;12.93;;
15451;SDS011;7827;53.594;9.938;2023-03-08T09:15:04;26.13;;;13.60;;
15451;SDS011;7827;53.594;9.938;2023-03-08T09:17:36;22.33;;;13.23;;
15451;SDS011;7827;53.594;9.938;2023-03-08T09:20:06;23.50;;;14.63;;
15451;SDS011;7827;53.594;9.938;2023-03-08T09:22:36;23.90;;;13.20;;
15451;SDS011;7827;53.594;9.938;2023-03-08T09:25:05;22.93;;;13.80;;
15451;SDS011;7827;53.594;9.938;2023-03-08T09:27:35;22.73;;;13.67;;
15451;SDS011;7827;53.594;9.938;2023-03-08T09:30:07;24.97;;;13.63;;
15451;SDS011;7827;53.594;9.938;2023-03-08T09:32:39;23.67;;;13.57;;
15451;SDS011;7827;53.594;9.938;2023-03-08T09:35:08;24.43;;;13.73;;
15451;SDS011;7827;53.594;9.938;2023-03-08T09:37:36;25.27;;;12.70;;
15451;SDS011;7827;53.594;9.938;2023-03-08T09:40:05;21.47;;;12.30;;
15451;SDS011;7827;53.594;9.938;2023-03-08T09:42:43;24.53;;;13.63;;
15451;SDS011;7827;53.594;9.938;2023-03-08T09:45:14;29.53;;;14.03;;
15451;SDS011;7827;53.594;9.938;2023-03-08T09:47:52;31.87;;;15.07;;
15451;SDS011;7827;53.594;9.938;2023-03-08T09:50:31;26.70;;;13.93;;
15451;SDS011;7827;53.594;9.938;2023-03-08T09:53:11;25.13;;;14.13;;
15451;SDS011;7827;53.594;9.938;2023-03-08T09:55:51;29.20;;;15.53;;
15451;SDS011;7827;53.594;9.938;2023-03-08T09:58:33;26.00;;;14.97;;
15451;SDS011;7827;53.594;9.938;2023-03-08T10:01:23;25.13;;;14.80;;
15451;SDS011;7827;53.594;9.938;2023-03-08T10:07:04;31.33;;;16.10;;
15451;SDS011;7827;53.594;9.938;2023-03-08T10:09:54;28.03;;;14.33;;
15451;SDS011;7827;53.594;9.938;2023-03-08T10:12:48;26.53;;;14.10;;
15451;SDS011;7827;53.594;9.938;2023-03-08T10:15:32;21.80;;;14.03;;
15451;SDS011;7827;53.594;9.938;2023-03-08T10:18:09;22.70;;;13.67;;
15451;SDS011;7827;53.594;9.938;2023-03-08T10:20:46;22.83;;;13.50;;
15451;SDS011;7827;53.594;9.938;2023-03-08T10:23:15;21.17;;;13.27;;
15451;SDS011;7827;53.594;9.938;2023-03-08T10:25:47;20.40;;;12.53;;
15451;SDS011;7827;53.594;9.938;2023-03-08T10:28:17;26.47;;;13.00;;
15451;SDS011;7827;53.594;9.938;2023-03-08T10:30:49;20.00;;;12.37;;
15451;SDS011;7827;53.594;9.938;2023-03-08T10:33:20;22.67;;;12.10;;
15451;SDS011;7827;53.594;9.938;2023-03-08T10:35:54;20.53;;;11.50;;
15451;SDS011;7827;53.594;9.938;2023-03-08T10:38:28;21.00;;;11.53;;
15451;SDS011;7827;53.594;9.938;2023-03-08T10:40:59;19.57;;;11.47;;
15451;SDS011;7827;53.594;9.938;2023-03-08T10:43:30;16.57;;;10.33;;
15451;SDS011;7827;53.594;9.938;2023-03-08T10:46:04;16.67;;;10.07;;
15451;SDS011;7827;53.594;9.938;2023-03-08T10:48:38;15.60;;;10.13;;
15451;SDS011;7827;53.594;9.938;2023-03-08T10:51:15;22.40;;;11.40;;
15451;SDS011;7827;53.594;9.938;2023-03-08T10:53:52;16.37;;;9.87;;
15451;SDS011;7827;53.594;9.938;2023-03-08T10:56:24;21.63;;;9.80;;
15451;SDS011;7827;53.594;9.938;2023-03-08T10:59:00;21.27;;;9.43;;
15451;SDS011;7827;53.594;9.938;2023-03-08T11:01:31;13.07;;;8.63;;
15451;SDS011;7827;53.594;9.938;2023-03-08T11:04:03;14.47;;;9.17;;
15451;SDS011;7827;53.594;9.938;2023-03-08T11:06:34;15.27;;;9.20;;
15451;SDS011;7827;53.594;9.938;2023-03-08T11:09:03;16.53;;;10.07;;
15451;SDS011;7827;53.594;9.938;2023-03-08T11:11:47;18.77;;;9.83;;
15451;SDS011;7827;53.594;9.938;2023-03-08T11:14:16;15.70;;;9.57;;
15451;SDS011;7827;53.594;9.938;2023-03-08T11:16:52;18.90;;;10.40;;
15451;SDS011;7827;53.594;9.938;2023-03-08T11:19:39;15.83;;;9.80;;
15451;SDS011;7827;53.594;9.938;2023-03-08T11:22:30;15.87;;;9.70;;
15451;SDS011;7827;53.594;9.938;2023-03-08T11:25:17;17.33;;;8.97;;
15451;SDS011;7827;53.594;9.938;2023-03-08T11:28:07;15.73;;;8.60;;
15451;SDS011;7827;53.594;9.938;2023-03-08T11:31:12;14.20;;;9.00;;
15451;SDS011;7827;53.594;9.938;2023-03-08T11:33:52;14.73;;;8.87;;
15451;SDS011;7827;53.594;9.938;2023-03-08T11:36:45;11.10;;;7.80;;
15451;SDS011;7827;53.594;9.938;2023-03-08T11:39:27;12.63;;;8.33;;
15451;SDS011;7827;53.594;9.938;2023-03-08T11:42:01;11.50;;;7.87;;
15451;SDS011;7827;53.594;9.938;2023-03-08T11:44:45;13.33;;;8.20;;
15451;SDS011;7827;53.594;9.938;2023-03-08T11:47:38;14.43;;;8.40;;
15451;SDS011;7827;53.594;9.938;2023-03-08T11:50:38;16.80;;;7.93;;
15451;SDS011;7827;53.594;9.938;2023-03-08T11:53:16;9.07;;;7.10;;
15451;SDS011;7827;53.594;9.938;2023-03-08T11:56:09;13.23;;;7.80;;
15451;SDS011;7827;53.594;9.938;2023-03-08T11:59:02;10.10;;;7.20;;
15451;SDS011;7827;53.594;9.938;2023-03-08T12:01:38;10.70;;;7.23;;
15451;SDS011;7827;53.594;9.938;2023-03-08T12:04:15;9.40;;;7.00;;
15451;SDS011;7827;53.594;9.938;2023-03-08T12:06:47;9.63;;;6.60;;
15451;SDS011;7827;53.594;9.938;2023-03-08T12:09:18;10.03;;;6.77;;
15451;SDS011;7827;53.594;9.938;2023-03-08T12:11:55;9.80;;;6.40;;
15451;SDS011;7827;53.594;9.938;2023-03-08T12:14:30;9.80;;;6.27;;
15451;SDS011;7827;53.594;9.938;2023-03-08T12:17:03;11.87;;;6.67;;
15451;SDS011;7827;53.594;9.938;2023-03-08T12:19:40;10.50;;;7.17;;
15451;SDS011;7827;53.594;9.938;2023-03-08T12:22:22;9.07;;;6.40;;
15451;SDS011;7827;53.594;9.938;2023-03-08T12:25:06;9.23;;;5.80;;
15451;SDS011;7827;53.594;9.938;2023-03-08T12:27:49;10.70;;;6.50;;
15451;SDS011;7827;53.594;9.938;2023-03-08T12:30:31;10.97;;;6.57;;
15451;SDS011;7827;53.594;9.938;2023-03-08T12:33:11;7.83;;;5.20;;
15451;SDS011;7827;53.594;9.938;2023-03-08T12:35:49;10.17;;;6.13;;
15451;SDS011;7827;53.594;9.938;2023-03-08T12:38:30;10.57;;;6.10;;
15451;SDS011;7827;53.594;9.938;2023-03-08T12:41:05;10.10;;;6.53;;
15451;SDS011;7827;53.594;9.938;2023-03-08T12:43:58;8.37;;;6.93;;
15451;SDS011;7827;53.594;9.938;2023-03-08T12:46:44;9.03;;;6.63;;
15451;SDS011;7827;53.594;9.938;2023-03-08T12:49:29;8.80;;;5.97;;
15451;SDS011;7827;53.594;9.938;2023-03-08T12:52:01;11.80;;;5.93;;
15451;SDS011;7827;53.594;9.938;2023-03-08T12:54:33;12.90;;;5.77;;
15451;SDS011;7827;53.594;9.938;2023-03-08T12:57:03;8.97;;;6.60;;
15451;SDS011;7827;53.594;9.938;2023-03-08T12:59:47;8.67;;;6.40;;
15451;SDS011;7827;53.594;9.938;2023-03-08T13:02:26;11.93;;;7.10;;
15451;SDS011;7827;53.594;9.938;2023-03-08T13:05:01;9.17;;;7.90;;
15451;SDS011;7827;53.594;9.938;2023-03-08T13:07:59;8.53;;;7.63;;
15451;SDS011;7827;53.594;9.938;2023-03-08T13:10:56;10.17;;;8.20;;
15451;SDS011;7827;53.594;9.938;2023-03-08T13:13:44;11.60;;;8.40;;
15451;SDS011;7827;53.594;9.938;2023-03-08T13:16:21;10.57;;;8.50;;
15451;SDS011;7827;53.594;9.938;2023-03-08T13:19:06;10.93;;;8.33;;
15451;SDS011;7827;53.594;9.938;2023-03-08T13:21:56;10.10;;;7.70;;
15451;SDS011;7827;53.594;9.938;2023-03-08T13:24:38;11.20;;;8.73;;
15451;SDS011;7827;53.594;9.938;2023-03-08T13:27:19;14.13;;;9.13;;
15451;SDS011;7827;53.594;9.938;2023-03-08T13:30:12;13.23;;;9.80;;
15451;SDS011;7827;53.594;9.938;2023-03-08T13:32:50;11.93;;;8.73;;
15451;SDS011;7827;53.594;9.938;2023-03-08T13:35:20;14.73;;;9.40;;
15451;SDS011;7827;53.594;9.938;2023-03-08T13:37:52;11.50;;;9.30;;
15451;SDS011;7827;53.594;9.938;2023-03-08T13:40:24;10.60;;;8.70;;
15451;SDS011;7827;53.594;9.938;2023-03-08T13:42:56;11.70;;;9.80;;
15451;SDS011;7827;53.594;9.938;2023-03-08T13:45:27;11.17;;;8.87;;
15451;SDS011;7827;53.594;9.938;2023-03-08T13:47:58;10.53;;;8.80;;
15451;SDS011;7827;53.594;9.938;2023-03-08T13:50:32;9.97;;;7.63;;
15451;SDS011;7827;53.594;9.938;2023-03-08T13:53:07;9.77;;;7.43;;
15451;SDS011;7827;53.594;9.938;2023-03-08T13:55:41;10.03;;;7.90;;
15451;SDS011;7827;53.594;9.938;2023-03-08T13:58:18;8.77;;;7.77;;
15451;SDS011;7827;53.594;9.938;2023-03-08T14:00:58;9.17;;;7.70;;
15451;SDS011;7827;53.594;9.938;2023-03-08T14:03:31;9.90;;;7.50;;
15451;SDS011;7827;53.594;9.938;2023-03-08T14:05:59;11.50;;;7.53;;
15451;SDS011;7827;53.594;9.938;2023-03-08T14:08:28;10.93;;;8.20;;
15451;SDS011;7827;53.594;9.938;2023-03-08T14:10:58;10.40;;;7.37;;
15451;SDS011;7827;53.594;9.938;2023-03-08T14:13:31;19.07;;;8.03;;
15451;SDS011;7827;53.594;9.938;2023-03-08T14:16:03;10.77;;;8.17;;
15451;SDS011;7827;53.594;9.938;2023-03-08T14:18:36;14.73;;;8.63;;
15451;SDS011;7827;53.594;9.938;2023-03-08T14:21:12;14.33;;;8.57;;
15451;SDS011;7827;53.594;9.938;2023-03-08T14:23:45;11.10;;;8.10;;
15451;SDS011;7827;53.594;9.938;2023-03-08T14:26:23;13.93;;;9.50;;
15451;SDS011;7827;53.594;9.938;2023-03-08T14:29:03;15.67;;;11.23;;
15451;SDS011;7827;53.594;9.938;2023-03-08T14:31:50;13.53;;;10.83;;
15451;SDS011;7827;53.594;9.938;2023-03-08T14:34:24;14.73;;;11.00;;
15451;SDS011;7827;53.594;9.938;2023-03-08T14:36:56;13.53;;;11.10;;
15451;SDS011;7827;53.594;9.938;2023-03-08T14:39:28;16.30;;;11.87;;
15451;SDS011;7827;53.594;9.938;2023-03-08T14:42:06;14.40;;;11.63;;
15451;SDS011;7827;53.594;9.938;2023-03-08T14:44:37;15.20;;;11.63;;
15451;SDS011;7827;53.594;9.938;2023-03-08T14:47:06;18.40;;;11.33;;
15451;SDS011;7827;53.594;9.938;2023-03-08T14:49:38;16.37;;;10.83;;
15451;SDS011;7827;53.594;9.938;2023-03-08T14:52:17;16.30;;;10.60;;
15451;SDS011;7827;53.594;9.938;2023-03-08T14:54:47;15.07;;;11.57;;
15451;SDS011;7827;53.594;9.938;2023-03-08T14:57:16;15.32;;;11.57;;
15451;SDS011;7827;53.594;9.938;2023-03-08T14:59:48;11.67;;;9.57;;
15451;SDS011;7827;53.594;9.938;2023-03-08T15:02:18;10.27;;;8.67;;
15451;SDS011;7827;53.594;9.938;2023-03-08T15:04:48;11.20;;;8.63;;
15451;SDS011;7827;53.594;9.938;2023-03-08T15:07:17;12.23;;;8.80;;
15451;SDS011;7827;53.594;9.938;2023-03-08T15:09:49;10.23;;;8.97;;
15451;SDS011;7827;53.594;9.938;2023-03-08T15:12:18;10.40;;;8.40;;
15451;SDS011;7827;53.594;9.938;2023-03-08T15:14:47;12.07;;;8.50;;
15451;SDS011;7827;53.594;9.938;2023-03-08T15:17:15;9.03;;;8.07;;
15451;SDS011;7827;53.594;9.938;2023-03-08T15:19:43;9.50;;;6.67;;
15451;SDS011;7827;53.594;9.938;2023-03-08T15:22:13;10.87;;;8.03;;
15451;SDS011;7827;53.594;9.938;2023-03-08T15:24:44;10.17;;;7.97;;